Time;durP1;ratioP1;P1;durP2;ratioP2;P2;SDS_P1;SDS_P2;PMS_P1;PMS_P2;Temp;Humidity;BMP_temperature;BMP_pressure;BME280_temperature;BME280_humidity;BME280_pressure;Samples;Min_cycle;Max_cycle;Signal;HPM_P1;HPM_P2
2021/12/09 00:02:20;;;;;;;0.20;0.20;;;;;;;5.85;83.86;97739.13;5092204;28;20099;-49
2021/12/09 00:04:48;;;;;;;0.00;0.00;;;;;;;5.65;83.92;97736.41;5092134;28;20115;-49
2021/12/09 00:07:14;;;;;;;0.00;0.00;;;;;;;5.58;84.43;97745.00;5092087;28;20108;-48
2021/12/09 00:13:31;;;;;;;1.02;0.95;;;;;;;5.58;84.51;97744.19;5092179;28;20078;-48
2021/12/09 00:15:58;;;;;;;0.00;0.00;;;;;;;5.65;84.65;97746.81;5092057;28;20189;-49
2021/12/09 00:18:24;;;;;;;0.00;0.00;;;;;;;5.70;84.81;97740.06;5092030;28;20048;-48
2021/12/09 00:20:50;;;;;;;0.00;0.00;;;;;;;5.83;84.59;97744.50;5091945;28;20024;-49
2021/12/09 00:23:16;;;;;;;0.00;0.00;;;;;;;6.04;85.08;97741.03;5091653;28;20467;-48
2021/12/09 00:25:42;;;;;;;0.47;0.47;;;;;;;6.20;84.79;97738.09;5091949;28;20032;-49
2021/12/09 00:28:08;;;;;;;0.00;0.00;;;;;;;6.31;85.26;97744.53;5091892;28;20028;-49
2021/12/09 00:30:35;;;;;;;0.00;0.00;;;;;;;6.45;84.95;97742.78;5091868;28;20059;-49
2021/12/09 00:33:05;;;;;;;0.00;0.00;;;;;;;6.65;84.85;97744.63;5091918;28;20027;-48
2021/12/09 00:35:42;;;;;;;0.00;0.00;;;;;;;6.79;84.49;97741.81;5091811;28;20024;-49
2021/12/09 00:38:10;;;;;;;0.10;0.10;;;;;;;6.88;84.28;97742.44;5090600;28;20118;-49
2021/12/09 00:40:36;;;;;;;0.00;0.00;;;;;;;7.00;84.28;97748.69;5091674;28;20101;-49
2021/12/09 00:43:03;;;;;;;0.75;0.75;;;;;;;7.20;84.24;97753.06;5091668;28;20024;-49
2021/12/09 00:45:29;;;;;;;0.10;0.10;;;;;;;7.36;83.82;97747.47;5091709;28;20123;-49
2021/12/09 00:47:55;;;;;;;0.00;0.00;;;;;;;7.48;83.50;97754.66;5091747;28;20028;-48
2021/12/09 00:50:22;;;;;;;0.65;0.52;;;;;;;7.26;82.52;97757.47;5091662;28;20020;-48
2021/12/09 00:52:49;;;;;;;0.75;0.30;;;;;;;7.05;82.68;97755.09;5091682;28;20513;-49
2021/12/09 00:55:16;;;;;;;0.30;0.30;;;;;;;6.72;82.93;97766.28;5091594;28;20066;-48
2021/12/09 00:57:43;;;;;;;0.00;0.00;;;;;;;6.62;83.19;97760.66;5090489;28;20024;-49
2021/12/09 01:00:13;;;;;;;0.00;0.00;;;;;;;6.71;83.82;97747.22;5091660;28;20245;-49
2021/12/09 01:02:39;;;;;;;0.88;0.88;;;;;;;6.85;83.53;97761.09;5091519;28;20161;-49
2021/12/09 01:05:07;;;;;;;0.00;0.00;;;;;;;7.05;83.30;97765.53;5090847;28;20490;-50
2021/12/09 01:07:33;;;;;;;0.00;0.00;;;;;;;7.31;83.73;97765.53;5094236;28;20402;-47
2021/12/09 01:09:59;;;;;;;1.65;1.45;;;;;;;7.53;82.86;97766.09;5095476;28;20024;-49
2021/12/09 01:12:25;;;;;;;0.05;0.05;;;;;;;7.66;82.40;97765.25;5095380;28;20031;-49
2021/12/09 01:14:51;;;;;;;0.10;0.10;;;;;;;7.66;82.20;97767.88;5095345;28;20049;-49
2021/12/09 01:17:18;;;;;;;0.10;0.10;;;;;;;7.19;80.42;97778.38;5095323;28;20024;-49
2021/12/09 01:19:43;;;;;;;0.43;0.43;;;;;;;6.92;81.97;97771.53;5095268;28;20027;-48
2021/12/09 01:22:09;;;;;;;0.75;0.75;;;;;;;6.72;81.68;97780.13;5095195;28;20036;-49
2021/12/09 01:24:35;;;;;;;0.93;0.93;;;;;;;6.83;82.40;97783.97;5094897;28;20055;-50
2021/12/09 01:27:01;;;;;;;0.00;0.00;;;;;;;7.07;82.80;97784.41;5095114;28;20096;-48
2021/12/09 01:29:38;;;;;;;0.00;0.00;;;;;;;7.27;82.91;97793.03;5095003;28;20560;-49
2021/12/09 01:32:07;;;;;;;0.10;0.10;;;;;;;7.44;82.51;97797.84;5095054;28;20030;-49
2021/12/09 01:34:36;;;;;;;0.00;0.00;;;;;;;7.49;82.82;97792.81;5095002;28;20024;-49
2021/12/09 01:37:03;;;;;;;0.00;0.00;;;;;;;7.49;82.06;97801.44;5094953;28;20381;-50
2021/12/09 01:39:31;;;;;;;0.00;0.00;;;;;;;7.44;82.81;97797.84;5095203;28;20046;-49
2021/12/09 01:41:57;;;;;;;1.08;0.98;;;;;;;7.37;82.15;97800.47;5094779;28;20016;-49
2021/12/09 01:44:24;;;;;;;0.00;0.00;;;;;;;7.27;81.95;97802.66;5094698;28;20028;-49
2021/12/09 01:46:50;;;;;;;0.08;0.05;;;;;;;7.09;81.92;97796.22;5094780;28;20024;-49
2021/12/09 01:49:16;;;;;;;0.10;0.10;;;;;;;6.92;81.88;97801.03;5094694;28;20059;-49
2021/12/09 01:51:43;;;;;;;0.20;0.20;;;;;;;6.87;82.29;97805.25;5094680;28;20028;-49
2021/12/09 01:54:09;;;;;;;0.10;0.10;;;;;;;6.95;82.56;97813.66;5094633;28;20441;-50
2021/12/09 01:56:35;;;;;;;0.10;0.10;;;;;;;6.95;82.36;97810.25;5094547;28;20034;-50
2021/12/09 01:59:05;;;;;;;0.00;0.00;;;;;;;6.90;82.07;97816.09;5094542;28;20394;-50
2021/12/09 02:01:32;;;;;;;0.00;0.00;;;;;;;7.01;82.95;97819.91;5094450;28;20052;-50
2021/12/09 02:03:59;;;;;;;0.00;0.00;;;;;;;7.24;83.02;97816.09;5094349;28;20028;-49
2021/12/09 02:06:26;;;;;;;0.00;0.00;;;;;;;7.20;82.00;97813.09;5094419;28;20043;-50
2021/12/09 02:08:53;;;;;;;0.00;0.00;;;;;;;7.02;81.65;97826.72;5094355;28;20474;-50
2021/12/09 02:11:20;;;;;;;0.00;0.00;;;;;;;6.91;82.42;97824.69;5094248;28;20016;-49
2021/12/09 02:13:50;;;;;;;0.95;0.32;;;;;;;6.89;82.60;97830.09;5094175;28;20035;-49
2021/12/09 02:16:16;;;;;;;0.00;0.00;;;;;;;7.00;82.46;97832.16;5093868;28;20020;-51
2021/12/09 02:18:42;;;;;;;0.50;0.47;;;;;;;7.18;82.98;97828.97;5094191;28;20390;-50
2021/12/09 02:21:12;;;;;;;0.00;0.00;;;;;;;7.19;81.41;97834.97;5094067;28;20389;-50
2021/12/09 02:23:42;;;;;;;0.60;0.47;;;;;;;7.00;81.65;97829.53;5093784;28;20052;-49
2021/12/09 02:26:08;;;;;;;0.03;0.03;;;;;;;6.95;82.08;97833.75;5094295;28;20040;-51
2021/12/09 02:28:34;;;;;;;0.35;0.35;;;;;;;7.04;83.06;97837.75;5093942;28;20129;-49
2021/12/09 02:31:00;;;;;;;0.10;0.10;;;;;;;7.17;82.74;97839.59;5093857;28;20482;-50
2021/12/09 02:33:26;;;;;;;0.10;0.10;;;;;;;7.31;82.38;97827.38;5093860;28;20024;-51
2021/12/09 02:35:51;;;;;;;0.00;0.00;;;;;;;7.34;82.47;97840.00;5093829;28;20028;-50
2021/12/09 02:38:17;;;;;;;0.00;0.00;;;;;;;7.32;82.45;97832.34;5093689;28;20020;-51
2021/12/09 02:40:43;;;;;;;0.00;0.00;;;;;;;7.36;82.65;97838.00;5093674;28;20024;-50
2021/12/09 02:43:09;;;;;;;0.00;0.00;;;;;;;7.39;82.22;97841.00;5093574;28;20038;-50
2021/12/09 02:45:38;;;;;;;0.00;0.00;;;;;;;7.42;81.96;97839.00;5093607;28;20032;-51
2021/12/09 02:48:04;;;;;;;0.00;0.00;;;;;;;7.37;81.78;97844.81;5093541;28;20486;-51
2021/12/09 02:50:30;;;;;;;0.00;0.00;;;;;;;7.25;81.76;97849.84;5092145;28;20602;-50
2021/12/09 02:52:56;;;;;;;0.00;0.00;;;;;;;7.19;81.94;97851.44;5093506;28;20020;-51
2021/12/09 02:55:21;;;;;;;0.00;0.00;;;;;;;7.24;82.60;97852.63;5093349;28;20024;-51
2021/12/09 02:57:51;;;;;;;0.00;0.00;;;;;;;7.31;82.43;97848.25;5093388;28;20386;-51
2021/12/09 03:00:17;;;;;;;0.00;0.00;;;;;;;7.44;82.41;97848.22;5093305;28;20036;-51
2021/12/09 03:02:44;;;;;;;0.00;0.00;;;;;;;7.63;82.32;97851.84;5093192;28;20027;-51
2021/12/09 03:05:10;;;;;;;0.00;0.00;;;;;;;7.85;81.63;97849.00;5093198;28;20039;-50
2021/12/09 03:07:40;;;;;;;0.00;0.00;;;;;;;7.98;81.58;97862.06;5093190;28;20035;-51
2021/12/09 03:10:24;;;;;;;0.00;0.00;;;;;;;8.02;80.60;97852.81;5093185;28;20039;-51
2021/12/09 03:12:55;;;;;;;0.80;0.10;;;;;;;7.96;80.85;97861.47;5093130;28;20035;-51
2021/12/09 03:15:21;;;;;;;0.20;0.20;;;;;;;7.92;80.82;97862.88;5093021;28;20073;-50
2021/12/09 03:17:48;;;;;;;0.20;0.20;;;;;;;7.91;80.79;97858.66;5092998;28;20024;-51
2021/12/09 03:20:16;;;;;;;0.10;0.10;;;;;;;7.82;80.07;97860.66;5092933;28;20020;-50
2021/12/09 03:22:43;;;;;;;0.00;0.00;;;;;;;7.67;80.81;97868.72;5092564;28;20017;-51
2021/12/09 03:25:11;;;;;;;0.00;0.00;;;;;;;7.67;80.77;97865.31;5092915;28;20059;-51
2021/12/09 03:27:38;;;;;;;0.00;0.00;;;;;;;7.54;80.21;97868.72;5092285;28;20024;-50
2021/12/09 03:30:11;;;;;;;0.00;0.00;;;;;;;7.14;80.10;97879.13;5092651;28;20040;-50
2021/12/09 03:32:37;;;;;;;0.00;0.00;;;;;;;6.99;80.12;97882.69;5092869;28;20071;-50
2021/12/09 03:35:04;;;;;;;0.08;0.08;;;;;;;6.94;80.48;97879.91;5092673;28;20597;-51
2021/12/09 03:37:30;;;;;;;0.73;0.57;;;;;;;6.87;80.97;97884.28;5092642;28;20027;-50
2021/12/09 03:39:56;;;;;;;0.00;0.00;;;;;;;6.83;80.51;97882.25;5092599;28;20489;-48
2021/12/09 03:42:27;;;;;;;0.65;0.65;;;;;;;6.63;79.88;97874.38;5092479;28;20035;-50
2021/12/09 03:44:54;;;;;;;0.00;0.00;;;;;;;6.21;79.68;97879.56;5092489;28;20024;-51
2021/12/09 03:47:24;;;;;;;2.90;2.17;;;;;;;6.36;81.12;97888.09;5092401;28;20495;-50
2021/12/09 03:49:50;;;;;;;0.00;0.00;;;;;;;6.52;80.48;97881.75;5092531;28;20062;-50
2021/12/09 03:52:16;;;;;;;0.00;0.00;;;;;;;6.79;81.01;97881.84;5092370;28;20102;-51
2021/12/09 03:54:44;;;;;;;0.00;0.00;;;;;;;7.18;81.17;97886.38;5091082;28;20020;-50
2021/12/09 03:57:11;;;;;;;0.00;0.00;;;;;;;7.47;79.95;97889.63;5092328;28;20035;-51
2021/12/09 03:59:38;;;;;;;0.00;0.00;;;;;;;7.66;80.63;97888.00;5092275;28;20125;-51
2021/12/09 04:02:05;;;;;;;0.00;0.00;;;;;;;7.85;79.86;97889.00;5092209;28;20032;-52
2021/12/09 04:04:31;;;;;;;0.00;0.00;;;;;;;8.05;79.85;97888.16;5090844;28;20027;-51
2021/12/09 04:06:58;;;;;;;0.00;0.00;;;;;;;8.28;78.84;97890.34;5092168;28;20020;-52
2021/12/09 04:09:25;;;;;;;0.35;0.35;;;;;;;8.44;79.08;97889.94;5092113;28;20413;-51
2021/12/09 04:11:51;;;;;;;0.05;0.05;;;;;;;8.23;77.66;97890.97;5092083;28;20106;-50
2021/12/09 04:14:17;;;;;;;0.43;0.43;;;;;;;7.58;77.08;97896.81;5092092;28;20142;-52
2021/12/09 04:16:43;;;;;;;0.25;0.17;;;;;;;7.10;78.11;97894.38;5090699;28;20169;-51
2021/12/09 04:19:10;;;;;;;0.00;0.00;;;;;;;6.97;79.36;97902.16;5092012;28;20035;-51
2021/12/09 04:21:36;;;;;;;0.00;0.00;;;;;;;6.97;80.08;97904.78;5091954;28;20103;-51
2021/12/09 04:24:07;;;;;;;0.65;0.65;;;;;;;7.00;79.90;97904.38;5091690;28;20044;-51
2021/12/09 04:26:35;;;;;;;0.00;0.00;;;;;;;6.98;80.27;97908.97;5091992;28;20030;-50
2021/12/09 04:29:01;;;;;;;1.15;0.95;;;;;;;6.95;80.01;97917.22;5091926;28;20073;-51
2021/12/09 04:31:28;;;;;;;0.00;0.00;;;;;;;6.95;80.42;97917.22;5090549;28;20024;-50
2021/12/09 04:33:54;;;;;;;0.00;0.00;;;;;;;6.96;80.98;97919.63;5091874;28;20020;-50
2021/12/09 04:36:21;;;;;;;0.20;0.20;;;;;;;6.98;80.44;97922.84;5091801;28;20449;-51
2021/12/09 04:38:48;;;;;;;0.00;0.00;;;;;;;7.01;81.43;97921.66;5091884;28;20027;-51
2021/12/09 04:41:17;;;;;;;0.00;0.00;;;;;;;6.98;80.42;97922.03;5095988;28;20012;-50
2021/12/09 04:43:43;;;;;;;0.00;0.00;;;;;;;6.94;81.10;97934.69;5095895;28;20393;-51
2021/12/09 04:46:12;;;;;;;0.00;0.00;;;;;;;6.89;81.14;97934.44;5095903;28;20016;-50
2021/12/09 04:48:38;;;;;;;0.00;0.00;;;;;;;6.94;81.25;97936.44;5095931;28;20028;-51
2021/12/09 04:51:04;;;;;;;0.00;0.00;;;;;;;6.86;80.73;97949.66;5095879;28;20096;-50
2021/12/09 04:53:31;;;;;;;0.10;0.10;;;;;;;6.81;81.15;97947.66;5095775;28;20111;-51
2021/12/09 04:55:57;;;;;;;0.20;0.20;;;;;;;6.87;80.95;97948.69;5095717;28;20020;-51
2021/12/09 04:58:23;;;;;;;0.00;0.00;;;;;;;6.90;80.47;97958.72;5095716;28;20497;-51
2021/12/09 05:00:50;;;;;;;0.00;0.00;;;;;;;6.87;81.32;97952.09;5095633;28;20444;-51
2021/12/09 05:03:17;;;;;;;0.00;0.00;;;;;;;6.87;81.30;97961.72;5095534;28;20020;-52
2021/12/09 05:05:49;;;;;;;0.00;0.00;;;;;;;6.89;81.62;97957.91;5095551;28;20396;-51
2021/12/09 05:08:18;;;;;;;0.00;0.00;;;;;;;6.95;81.38;97962.34;5095537;28;20400;-51
2021/12/09 05:11:12;;;;;;;0.00;0.00;;;;;;;6.94;81.08;97959.94;5095485;28;20022;-52
2021/12/09 05:13:40;;;;;;;0.00;0.00;;;;;;;6.84;80.53;97965.53;5095451;28;20039;-51
2021/12/09 05:16:07;;;;;;;0.13;0.13;;;;;;;6.73;80.98;97972.09;5095319;28;20028;-51
2021/12/09 05:18:38;;;;;;;0.10;0.10;;;;;;;6.82;81.54;97977.13;5095272;28;20024;-51
2021/12/09 05:21:06;;;;;;;0.00;0.00;;;;;;;6.88;81.03;97979.78;5095322;28;20023;-51
2021/12/09 05:23:33;;;;;;;0.43;0.43;;;;;;;6.84;81.30;97983.78;5094947;28;20044;-50
2021/12/09 05:26:01;;;;;;;0.00;0.00;;;;;;;6.82;81.12;97985.75;5095186;28;20064;-51
2021/12/09 05:28:33;;;;;;;0.00;0.00;;;;;;;6.85;81.53;97976.75;5095207;28;20497;-51
2021/12/09 05:33:58;;;;;;;0.00;0.00;;;;;;;6.85;82.05;97985.38;5072500;28;20045;-52
2021/12/09 05:36:24;;;;;;;0.00;0.00;;;;;;;6.89;82.31;97991.03;5072463;28;20025;-50
2021/12/09 05:38:50;;;;;;;0.00;0.00;;;;;;;6.88;81.98;97987.63;5072444;28;20073;-50
2021/12/09 05:41:15;;;;;;;0.10;0.10;;;;;;;6.81;81.09;97989.38;5072389;28;20173;-52
2021/12/09 05:43:41;;;;;;;0.00;0.00;;;;;;;6.67;81.34;97990.31;5072324;28;20055;-52
2021/12/09 05:46:08;;;;;;;0.00;0.00;;;;;;;6.61;81.50;97994.47;5072373;28;20651;-50
2021/12/09 05:48:36;;;;;;;0.05;0.05;;;;;;;6.67;82.03;97991.09;5072316;28;20020;-50
2021/12/09 05:51:02;;;;;;;0.10;0.10;;;;;;;6.90;81.91;97997.84;5071477;28;20464;-50
2021/12/09 05:53:27;;;;;;;1.65;1.55;;;;;;;6.99;81.47;97996.69;5072274;28;20032;-52
2021/12/09 05:55:53;;;;;;;0.00;0.00;;;;;;;6.83;80.64;97997.81;5072195;28;20414;-51
2021/12/09 05:58:22;;;;;;;0.00;0.00;;;;;;;6.61;80.69;98007.53;5072054;28;20242;-50
2021/12/09 06:00:50;;;;;;;0.00;0.00;;;;;;;6.66;81.40;98009.53;5072159;28;20037;-51
2021/12/09 06:03:19;;;;;;;0.00;0.00;;;;;;;6.66;81.31;98012.16;5071839;28;20119;-51
2021/12/09 06:05:45;;;;;;;0.00;0.00;;;;;;;6.65;81.20;98010.56;5072049;28;20028;-51
2021/12/09 06:08:11;;;;;;;0.00;0.00;;;;;;;6.63;81.77;98012.56;5071947;28;20021;-51
2021/12/09 06:10:37;;;;;;;0.00;0.00;;;;;;;6.76;81.60;98016.03;5093283;28;20047;-50
2021/12/09 06:13:04;;;;;;;0.00;0.00;;;;;;;6.97;81.71;98025.56;5094340;28;20028;-51
2021/12/09 06:15:30;;;;;;;0.03;0.03;;;;;;;7.20;81.53;98021.84;5094218;28;20524;-51
2021/12/09 06:17:56;;;;;;;0.00;0.00;;;;;;;7.33;81.13;98027.13;5094200;28;20030;-51
2021/12/09 06:20:25;;;;;;;0.00;0.00;;;;;;;7.21;79.91;98028.69;5094130;28;20099;-51
2021/12/09 06:22:50;;;;;;;0.20;0.20;;;;;;;6.87;80.97;98029.53;5093839;28;20140;-50
2021/12/09 06:25:18;;;;;;;0.00;0.00;;;;;;;6.97;81.29;98030.00;5094108;28;20111;-52
2021/12/09 06:27:48;;;;;;;0.43;0.40;;;;;;;7.23;81.09;98031.91;5094039;28;20020;-52
2021/12/09 06:30:15;;;;;;;0.00;0.00;;;;;;;7.48;81.76;98040.00;5093930;28;20028;-51
2021/12/09 06:32:41;;;;;;;0.00;0.00;;;;;;;7.70;80.90;98038.06;5094153;28;20028;-51
2021/12/09 06:35:08;;;;;;;0.10;0.10;;;;;;;7.99;80.41;98038.75;5093843;28;20070;-50
2021/12/09 06:37:38;;;;;;;0.77;0.63;;;;;;;8.13;79.91;98040.34;5092534;28;20036;-50
2021/12/09 06:40:06;;;;;;;1.65;0.95;;;;;;;7.94;79.53;98041.94;5093728;28;20031;-51
2021/12/09 06:42:31;;;;;;;0.38;0.38;;;;;;;8.02;79.78;98045.38;5093709;28;20107;-52
2021/12/09 06:44:57;;;;;;;0.05;0.05;;;;;;;8.27;79.82;98049.00;5093602;28;20095;-51
2021/12/09 06:47:23;;;;;;;0.00;0.00;;;;;;;8.35;79.48;98042.75;5093624;28;20048;-51
2021/12/09 06:49:50;;;;;;;0.25;0.25;;;;;;;8.35;79.63;98048.81;5093597;28;20016;-51
2021/12/09 06:52:16;;;;;;;0.35;0.35;;;;;;;8.45;79.70;98048.44;5093497;28;20027;-51
2021/12/09 06:54:42;;;;;;;0.00;0.00;;;;;;;8.53;79.98;98053.47;5093478;28;20024;-50
2021/12/09 06:57:08;;;;;;;0.80;0.80;;;;;;;8.63;79.61;98060.06;5093373;28;20028;-51
2021/12/09 06:59:34;;;;;;;0.00;0.00;;;;;;;8.67;79.24;98064.72;5093395;28;20020;-51
2021/12/09 07:02:00;;;;;;;0.00;0.00;;;;;;;8.72;79.20;98059.66;5093139;28;20081;-52
2021/12/09 07:04:26;;;;;;;0.00;0.00;;;;;;;8.72;78.99;98061.47;5092342;28;20020;-51
2021/12/09 07:06:52;;;;;;;0.00;0.00;;;;;;;8.77;78.26;98054.63;5091935;28;20394;-52
2021/12/09 07:09:18;;;;;;;0.00;0.00;;;;;;;8.82;78.89;98063.69;5093161;28;20020;-50
2021/12/09 07:11:50;;;;;;;0.10;0.10;;;;;;;8.79;78.86;98068.31;5093197;28;20130;-50
2021/12/09 07:14:17;;;;;;;0.00;0.00;;;;;;;8.82;78.90;98074.94;5093203;28;20028;-51
2021/12/09 07:16:43;;;;;;;0.00;0.00;;;;;;;8.80;78.14;98088.22;5093066;28;20065;-51
2021/12/09 07:19:08;;;;;;;0.00;0.00;;;;;;;8.82;78.79;98095.09;5092992;28;20024;-51
2021/12/09 07:21:34;;;;;;;0.00;0.00;;;;;;;8.88;78.85;98092.44;5091692;28;20024;-51
2021/12/09 07:24:00;;;;;;;0.00;0.00;;;;;;;9.00;78.46;98098.66;5092626;28;20048;-51
2021/12/09 07:26:26;;;;;;;0.00;0.00;;;;;;;9.05;78.60;98099.84;5092882;28;20052;-52
2021/12/09 07:28:52;;;;;;;0.00;0.00;;;;;;;9.10;78.62;98103.47;5092876;28;20030;-50
2021/12/09 07:31:17;;;;;;;0.00;0.00;;;;;;;9.14;78.58;98103.88;5091436;28;20024;-51
2021/12/09 07:33:43;;;;;;;0.00;0.00;;;;;;;9.23;78.41;98107.88;5092706;28;20032;-51
2021/12/09 07:36:09;;;;;;;0.00;0.00;;;;;;;9.32;78.40;98108.47;5092674;28;20027;-49
2021/12/09 07:38:35;;;;;;;0.00;0.00;;;;;;;9.49;78.51;98111.41;5091374;28;20023;-51
2021/12/09 07:41:00;;;;;;;0.00;0.00;;;;;;;9.52;76.95;98118.88;5091396;28;20024;-52
2021/12/09 07:43:26;;;;;;;0.00;0.00;;;;;;;9.56;78.20;98122.69;5092548;28;20032;-51
2021/12/09 07:45:52;;;;;;;0.10;0.10;;;;;;;9.46;78.06;98115.25;5092498;28;20073;-51
2021/12/09 07:48:18;;;;;;;0.00;0.00;;;;;;;9.30;78.13;98123.56;5092489;28;20485;-52
2021/12/09 07:50:43;;;;;;;0.00;0.00;;;;;;;9.09;78.08;98132.47;5092452;28;20030;-51
2021/12/09 07:53:09;;;;;;;0.10;0.10;;;;;;;8.79;77.32;98138.13;5092388;28;20028;-51
2021/12/09 07:55:35;;;;;;;0.30;0.30;;;;;;;8.26;77.63;98143.31;5092338;28;20500;-50
2021/12/09 07:58:00;;;;;;;0.00;0.00;;;;;;;7.99;78.78;98146.66;5092343;28;20406;-51
2021/12/09 08:00:31;;;;;;;0.00;0.00;;;;;;;7.73;78.82;98142.16;5092258;28;20028;-51
2021/12/09 08:02:58;;;;;;;0.10;0.10;;;;;;;7.51;78.70;98146.69;5092231;28;20028;-51
2021/12/09 08:05:27;;;;;;;1.30;1.23;;;;;;;7.35;80.28;98145.19;5092492;28;20448;-50
2021/12/09 08:07:53;;;;;;;0.43;0.43;;;;;;;7.25;80.11;98149.16;5092204;28;20382;-51
2021/12/09 08:10:19;;;;;;;1.85;1.75;;;;;;;7.33;80.87;98149.00;5092174;28;20073;-51
2021/12/09 08:12:46;;;;;;;0.85;0.85;;;;;;;7.50;80.51;98152.91;5092130;28;20023;-51
2021/12/09 08:15:13;;;;;;;0.10;0.10;;;;;;;7.62;80.64;98153.16;5091712;28;20024;-50
2021/12/09 08:18:02;;;;;;;0.55;0.55;;;;;;;7.80;80.71;98161.25;5090764;28;20024;-51
2021/12/09 08:20:26;;;;;;;0.10;0.10;;;;;;;7.99;80.72;98158.94;5091711;28;20403;-51
2021/12/09 08:22:52;;;;;;;1.17;1.08;;;;;;;8.19;80.42;98162.41;5091768;28;20455;-51
2021/12/09 08:25:21;;;;;;;1.65;1.55;;;;;;;8.32;80.32;98159.00;5090662;28;20060;-51
2021/12/09 08:27:47;;;;;;;0.00;0.00;;;;;;;8.57;80.19;98161.06;5091946;28;20024;-51
2021/12/09 08:30:17;;;;;;;2.15;1.95;;;;;;;8.97;80.54;98150.59;5091909;28;20032;-51
2021/12/09 08:32:43;;;;;;;0.00;0.00;;;;;;;9.63;79.75;98148.84;5090586;28;20059;-50
2021/12/09 08:35:09;;;;;;;0.00;0.00;;;;;;;9.71;78.90;98154.66;5090530;28;20064;-51
2021/12/09 08:37:35;;;;;;;0.00;0.00;;;;;;;9.71;78.85;98154.66;5090506;28;20035;-51
2021/12/09 08:40:02;;;;;;;0.40;0.40;;;;;;;9.65;77.74;98157.31;5090522;28;20026;-51
2021/12/09 08:42:28;;;;;;;7.47;1.45;;;;;;;9.38;76.04;98154.78;5091825;28;20095;-51
2021/12/09 08:44:54;;;;;;;0.00;0.00;;;;;;;8.96;76.46;98165.50;5091725;28;20100;-51
2021/12/09 08:47:20;;;;;;;0.00;0.00;;;;;;;8.56;76.61;98175.97;5091730;28;20032;-51
2021/12/09 08:49:47;;;;;;;0.00;0.00;;;;;;;8.25;76.76;98183.50;5090490;28;20016;-51
2021/12/09 08:52:13;;;;;;;0.00;0.00;;;;;;;8.19;77.82;98180.69;5090361;28;20020;-51
2021/12/09 08:54:39;;;;;;;0.10;0.10;;;;;;;8.21;78.19;98183.13;5090363;28;20024;-51
2021/12/09 08:57:05;;;;;;;0.00;0.00;;;;;;;8.15;78.33;98184.72;5090349;28;20031;-51
2021/12/09 08:59:32;;;;;;;0.10;0.10;;;;;;;8.17;79.23;98190.56;5090278;28;20085;-51
2021/12/09 09:01:58;;;;;;;0.00;0.00;;;;;;;8.20;78.88;98195.38;5091611;28;20049;-51
2021/12/09 09:04:24;;;;;;;0.00;0.00;;;;;;;8.13;78.98;98186.72;5091506;28;20028;-51
2021/12/09 09:07:01;;;;;;;0.00;0.00;;;;;;;7.99;79.21;98187.69;5091578;28;20058;-51
2021/12/09 09:09:33;;;;;;;0.00;0.00;;;;;;;7.78;79.59;98189.38;5091538;28;20385;-51
2021/12/09 09:11:59;;;;;;;0.00;0.00;;;;;;;7.67;80.25;98189.97;5091612;28;20482;-51
2021/12/09 09:14:25;;;;;;;0.00;0.00;;;;;;;7.74;80.74;98190.78;5090181;28;20021;-51
2021/12/09 09:16:50;;;;;;;0.00;0.00;;;;;;;7.78;80.37;98193.81;5091457;28;20047;-52
2021/12/09 09:19:16;;;;;;;0.00;0.00;;;;;;;7.65;79.69;98191.94;5090150;28;20032;-51
2021/12/09 09:21:42;;;;;;;0.00;0.00;;;;;;;7.56;80.29;98198.31;5091465;28;20016;-51
2021/12/09 09:24:09;;;;;;;0.00;0.00;;;;;;;7.53;80.78;98196.13;5091072;28;20398;-51
2021/12/09 09:26:36;;;;;;;0.00;0.00;;;;;;;7.51;80.43;98198.91;5092724;28;20515;-51
2021/12/09 09:29:03;;;;;;;0.00;0.00;;;;;;;7.38;80.43;98194.44;5095135;28;20027;-49
2021/12/09 09:31:31;;;;;;;0.10;0.10;;;;;;;7.25;79.23;98193.53;5093774;28;20054;-50
2021/12/09 09:34:00;;;;;;;0.43;0.43;;;;;;;7.18;79.70;98198.69;5095080;28;20020;-51
2021/12/09 09:36:26;;;;;;;0.00;0.00;;;;;;;7.17;80.28;98199.69;5095049;28;20035;-51
2021/12/09 09:38:56;;;;;;;0.00;0.00;;;;;;;7.30;80.26;98201.59;5094998;28;20069;-51
2021/12/09 09:41:26;;;;;;;0.10;0.10;;;;;;;7.49;80.60;98200.09;5094924;28;20063;-51
2021/12/09 09:46:24;;;;;;;1.42;1.38;;;;;;;7.71;79.84;98199.00;5094811;28;20036;-51
2021/12/09 09:48:53;;;;;;;0.10;0.10;;;;;;;7.77;78.79;98202.66;5094859;28;20035;-51
2021/12/09 09:51:22;;;;;;;0.00;0.00;;;;;;;7.74;79.36;98209.06;5094750;28;20463;-51
2021/12/09 09:53:48;;;;;;;0.00;0.00;;;;;;;7.87;79.82;98208.34;5094737;28;20020;-50
2021/12/09 09:56:19;;;;;;;0.00;0.00;;;;;;;7.99;79.13;98213.81;5094558;28;20016;-51
2021/12/09 09:58:48;;;;;;;0.30;0.30;;;;;;;8.08;78.86;98210.00;5094706;28;20051;-51
2021/12/09 10:01:15;;;;;;;0.43;0.43;;;;;;;8.20;78.89;98197.97;5094497;28;20089;-51
2021/12/09 10:03:46;;;;;;;0.00;0.00;;;;;;;8.18;78.60;98199.19;5093086;28;20085;-51
2021/12/09 10:06:13;;;;;;;0.00;0.00;;;;;;;8.18;78.74;98189.53;5094381;28;20032;-51
2021/12/09 10:08:40;;;;;;;0.00;0.00;;;;;;;8.54;79.57;98185.81;5094410;28;20393;-51
2021/12/09 10:11:06;;;;;;;0.05;0.05;;;;;;;9.10;79.25;98187.25;5093003;28;20032;-51
2021/12/09 10:13:39;;;;;;;0.00;0.00;;;;;;;9.33;78.44;98184.19;5094353;28;20103;-51
2021/12/09 10:16:22;;;;;;;0.00;0.00;;;;;;;9.45;77.71;98178.31;5093264;28;20512;-52
2021/12/09 10:18:51;;;;;;;0.00;0.00;;;;;;;9.44;77.80;98182.75;5092950;28;20540;-51
2021/12/09 10:21:29;;;;;;;3.58;3.30;;;;;;;9.43;77.33;98177.72;5092784;28;20117;-51
2021/12/09 10:24:06;;;;;;;3.10;2.88;;;;;;;9.27;76.82;98174.53;5093548;28;20067;-48
2021/12/09 10:26:48;;;;;;;3.47;3.22;;;;;;;9.14;77.45;98179.78;5094014;28;20398;-51
2021/12/09 10:29:20;;;;;;;2.95;2.55;;;;;;;9.10;76.67;98176.78;5094021;28;20036;-51
2021/12/09 10:31:57;;;;;;;2.92;1.33;;;;;;;9.12;77.13;98169.53;5094039;28;20024;-51
2021/12/09 10:34:41;;;;;;;2.55;2.35;;;;;;;9.17;77.29;98177.56;5093973;28;20032;-51
2021/12/09 10:37:21;;;;;;;1.27;1.25;;;;;;;9.16;76.29;98172.53;5093569;28;20101;-51
2021/12/09 10:39:53;;;;;;;0.10;0.10;;;;;;;9.11;76.48;98173.13;5092513;28;20157;-50
2021/12/09 10:42:27;;;;;;;0.00;0.00;;;;;;;9.10;76.22;98178.59;5092431;28;20016;-51
2021/12/09 10:44:54;;;;;;;5.03;1.13;;;;;;;9.01;75.79;98177.97;5092436;28;20024;-51
2021/12/09 10:55:50;;;;;;;0.10;0.10;;;;;;;9.29;76.04;98164.66;5093548;28;20032;-51
2021/12/09 10:58:19;;;;;;;0.00;0.00;;;;;;;9.45;76.41;98162.59;5093539;28;20123;-49
2021/12/09 11:00:52;;;;;;;0.00;0.00;;;;;;;9.62;75.88;98165.56;5092113;28;20131;-50
2021/12/09 11:03:24;;;;;;;0.00;0.00;;;;;;;9.76;76.06;98167.16;5093405;28;20028;-50
2021/12/09 11:06:08;;;;;;;0.00;0.00;;;;;;;9.89;75.73;98161.84;5093371;28;20032;-51
2021/12/09 11:08:54;;;;;;;0.00;0.00;;;;;;;9.97;75.81;98160.81;5093291;28;20135;-50
2021/12/09 11:11:31;;;;;;;0.00;0.00;;;;;;;9.95;75.00;98158.38;5091944;28;20028;-50
2021/12/09 11:14:12;;;;;;;0.00;0.00;;;;;;;10.05;75.11;98162.38;5093229;28;20044;-51
2021/12/09 11:16:42;;;;;;;0.00;0.00;;;;;;;10.16;74.61;98154.66;5093141;28;20409;-50
2021/12/09 11:19:24;;;;;;;0.00;0.00;;;;;;;10.16;72.89;98159.91;5093112;28;20024;-51
2021/12/09 11:21:57;;;;;;;0.00;0.00;;;;;;;9.94;72.95;98158.59;5091724;28;20489;-51
2021/12/09 11:24:27;;;;;;;0.90;0.90;;;;;;;9.85;73.48;98157.22;5091345;28;20059;-51
2021/12/09 11:27:00;;;;;;;0.00;0.00;;;;;;;9.77;72.96;98156.44;5092957;28;20024;-50
2021/12/09 11:29:42;;;;;;;0.00;0.00;;;;;;;9.62;73.25;98158.53;5093170;28;20024;-50
2021/12/09 11:32:12;;;;;;;0.00;0.00;;;;;;;9.59;73.04;98162.34;5092824;28;20020;-51
2021/12/09 11:34:44;;;;;;;0.00;0.00;;;;;;;9.59;72.91;98166.78;5093071;28;20028;-51
2021/12/09 11:37:35;;;;;;;0.00;0.00;;;;;;;9.55;72.47;98152.50;5092817;28;20062;-51
2021/12/09 11:39:57;;;;;;;0.00;0.00;;;;;;;9.45;72.38;98160.78;5092570;28;20027;-51
2021/12/09 11:42:31;;;;;;;0.00;0.00;;;;;;;9.37;72.45;98155.78;5092571;28;20099;-50
2021/12/09 11:44:57;;;;;;;0.00;0.00;;;;;;;9.40;71.96;98150.13;5092574;28;20024;-50
2021/12/09 11:47:24;;;;;;;0.00;0.00;;;;;;;9.49;72.00;98155.94;5091212;28;20592;-50
2021/12/09 11:49:51;;;;;;;0.38;0.38;;;;;;;9.57;71.32;98163.56;5090575;28;20050;-51
2021/12/09 11:52:19;;;;;;;0.00;0.00;;;;;;;9.76;71.12;98162.72;5091095;28;20024;-51
2021/12/09 11:54:55;;;;;;;0.00;0.00;;;;;;;9.89;70.49;98156.59;5091112;28;20558;-51
2021/12/09 11:57:36;;;;;;;0.00;0.00;;;;;;;10.00;70.33;98158.56;5092388;28;20496;-51
2021/12/09 12:24:21;;;;;;;0.00;0.00;;;;;;;9.99;68.61;98154.31;5091576;28;20048;-51
2021/12/09 12:27:13;;;;;;;0.38;0.38;;;;;;;9.90;67.47;98154.78;5091993;28;20032;-51
2021/12/09 12:35:29;;;;;;;0.00;0.00;;;;;;;9.76;67.82;98162.72;5091942;28;20036;-51